»·PEaware :: DCM4157 KSFO-KVNY

DCM4157 :: KSFO-KVNY

FLIGHT INFORMATION

Flight Status: Arrived
Operator: Unknown
More flights by this operator :: More flights under this callsign
Pilot: Chris A. (85)
Aircraft: CESSNA 550 CITATION 2/S2/BRAVO
(C550)
More flights by this aircraft type
Origin: KSFO San Francisco Intl
United States
Destination: KVNY Van Nuys
United States
More flights between these airports :: More routes between these airports
Route: +WESLA3 CISKO RDHOT IVINS1
File this flight plan on PilotEdge
Remarks: PBN / B1O1 DOF / 180508 SUR / 260B CODE / A08346
Altitude:
(Current/Filed)
29,000ft
Speed:
(Current/Filed)
395kts
Departed: 07-May-18 08:13 PM
Arrived: 07-May-18 09:05 PM
Distance/Time
Traveled:
279nm/0:52
Distance/Time
To Go:
Arrived

Flight Plot

Page will automatically refresh every two minutes.

Flight plan parsing failed; only flown route is shown


Map Options




Map Legend


Flown Route
Filed Route
Departure Airport
Arrival Airport
Navaid (VOR, NDB)
Fix

Horizontal Profiles

Position Reports

Time Latitude Longitude Heading Altitude Ground
Speed
07-May-18 19:44 37.628021 -122.383986 297 16ft 0kts
07-May-18 19:45 37.628021 -122.383986 297 16ft 0kts
07-May-18 19:46 37.628021 -122.383986 297 16ft 0kts
07-May-18 19:47 37.628021 -122.383986 297 16ft 0kts
07-May-18 19:48 37.628021 -122.383986 297 16ft 0kts
07-May-18 19:49 37.628021 -122.383986 297 16ft 0kts
07-May-18 19:50 37.628021 -122.383986 297 16ft 0kts
07-May-18 19:51 37.628021 -122.383986 297 16ft 0kts
07-May-18 19:52 37.628021 -122.383986 297 16ft 0kts
07-May-18 19:53 37.628021 -122.383986 297 16ft 0kts
07-May-18 19:54 37.628021 -122.383986 297 16ft 0kts
07-May-18 19:55 37.628021 -122.383986 297 16ft 0kts
07-May-18 19:56 37.628021 -122.383986 297 16ft 0kts
07-May-18 19:57 37.628021 -122.383986 297 16ft 0kts
07-May-18 19:58 37.628021 -122.383986 297 16ft 0kts
07-May-18 19:59 37.628021 -122.383986 297 16ft 0kts
07-May-18 20:00 37.628021 -122.383986 297 16ft 0kts
07-May-18 20:01 37.628021 -122.383986 297 16ft 0kts
07-May-18 20:02 37.628021 -122.383986 297 16ft 0kts
07-May-18 20:03 37.628021 -122.383986 297 16ft 0kts
07-May-18 20:04 37.628021 -122.383986 297 16ft 0kts
07-May-18 20:05 37.628021 -122.383986 297 16ft 0kts
07-May-18 20:06 37.628021 -122.383986 297 16ft 0kts
07-May-18 20:07 37.628022 -122.383989 297 16ft 0kts
07-May-18 20:08 37.628023 -122.383992 297 16ft 0kts
07-May-18 20:09 37.627832 -122.384352 216 16ft 10kts
07-May-18 20:10 37.625688 -122.382411 118 16ft 20kts
07-May-18 20:11 37.623757 -122.377788 117 16ft 17kts
07-May-18 20:12 37.622404 -122.375455 219 16ft 0kts
07-May-18 20:13 37.623703 -122.381350 296 16ft 98kts
07-May-18 20:14 37.644358 -122.431541 295 2231ft 211kts
07-May-18 20:15 37.667506 -122.505876 260 4503ft 246kts
07-May-18 20:16 37.609886 -122.523498 152 7004ft 258kts
07-May-18 20:17 37.539741 -122.491017 164 9535ft 298kts
07-May-18 20:18 37.461209 -122.439967 135 12242ft 342kts
07-May-18 20:19 37.393502 -122.357953 137 15524ft 331kts
07-May-18 20:20 37.328422 -122.279592 138 18804ft 321kts
07-May-18 20:21 37.264375 -122.202598 139 21962ft 316kts
07-May-18 20:22 37.201725 -122.127449 139 24847ft 306kts
07-May-18 20:23 37.142334 -122.056353 142 27718ft 282kts
07-May-18 20:24 37.085616 -121.988826 142 29169ft 307kts
07-May-18 20:25 37.016896 -121.906974 140 29147ft 374kts
07-May-18 20:26 36.936496 -121.811399 140 29146ft 415kts
07-May-18 20:27 36.850813 -121.709908 140 29149ft 432kts
07-May-18 20:28 36.763370 -121.606692 140 29173ft 430kts
07-May-18 20:29 36.676632 -121.504680 140 29194ft 426kts
07-May-18 20:30 36.590519 -121.403740 140 29186ft 427kts
07-May-18 20:31 36.505220 -121.304068 140 29189ft 429kts
07-May-18 20:32 36.418315 -121.202842 140 29173ft 429kts
07-May-18 20:33 36.328847 -121.105139 144 29157ft 428kts
07-May-18 20:34 36.236601 -121.011651 144 29132ft 429kts
07-May-18 20:35 36.144176 -120.917308 143 29113ft 430kts
07-May-18 20:36 36.053977 -120.825432 143 29100ft 431kts
07-May-18 20:37 35.961163 -120.731176 143 29091ft 431kts
07-May-18 20:38 35.870917 -120.639814 143 29087ft 430kts
07-May-18 20:39 35.778317 -120.546357 143 29085ft 431kts
07-May-18 20:40 35.685208 -120.452686 143 29084ft 431kts
07-May-18 20:41 35.592201 -120.359511 143 29084ft 431kts
07-May-18 20:42 35.501096 -120.264505 142 29083ft 429kts
07-May-18 20:43 35.409915 -120.169486 142 29084ft 429kts
07-May-18 20:44 35.319095 -120.075205 142 28854ft 425kts
07-May-18 20:45 35.230790 -119.983822 142 27208ft 412kts
07-May-18 20:46 35.143161 -119.893414 141 25619ft 410kts
07-May-18 20:47 35.056200 -119.803948 140 24122ft 407kts
07-May-18 20:48 34.971812 -119.717377 140 22566ft 400kts
07-May-18 20:49 34.886994 -119.630583 140 20982ft 395kts
07-May-18 20:50 34.816273 -119.530929 129 19484ft 383kts
07-May-18 20:51 34.749776 -119.431256 128 17979ft 373kts
07-May-18 20:52 34.686324 -119.334182 128 16481ft 361kts
07-May-18 20:53 34.629641 -119.241063 120 15014ft 343kts
07-May-18 20:54 34.582031 -119.144393 120 13544ft 338kts
07-May-18 20:55 34.529424 -119.055139 142 12045ft 317kts
07-May-18 20:56 34.459301 -118.991264 142 10544ft 309kts
07-May-18 20:57 34.417808 -118.905603 103 9060ft 302kts
07-May-18 20:58 34.400474 -118.807696 100 7561ft 290kts
07-May-18 20:58 34.387209 -118.729770 101 6309ft 278kts
07-May-18 21:00 34.359802 -118.631012 128 5141ft 258kts
07-May-18 21:00 34.322195 -118.578266 129 4794ft 238kts
07-May-18 21:01 34.291238 -118.523497 124 3406ft 182kts
07-May-18 21:02 34.254818 -118.493853 171 1995ft 145kts
07-May-18 21:03 34.216782 -118.490974 175 859ft 121kts
07-May-18 21:04 34.204174 -118.490574 194 805ft 10kts
07-May-18 21:05 34.204055 -118.491489 267 805ft 0kts
07-May-18 21:06 34.204055 -118.491492 267 805ft 0kts

Navigation Log

Ident Type
Flight plan parsing failed, navigation log unavailable